Time;durP1;ratioP1;P1;durP2;ratioP2;P2;SDS_P1;SDS_P2;PMS_P1;PMS_P2;Temp;Humidity;BMP_temperature;BMP_pressure;BME280_temperature;BME280_humidity;BME280_pressure;Samples;Min_cycle;Max_cycle;Signal;HPM_P1;HPM_P2
2021/04/25 17:57:10;;;;;;;2.30;0.80;;;;;;;;;;5088243;27;20545;-50
2021/04/25 17:59:36;;;;;;;1.73;0.80;;;;;;;;;;5080590;28;20181;-51
2021/04/25 18:02:03;;;;;;;3.73;0.80;;;;;;;;;;5082593;28;20284;-52
2021/04/25 18:04:29;;;;;;;2.93;0.77;;;;;;;;;;5075489;28;20663;-52
2021/04/25 18:06:59;;;;;;;1.47;0.80;;;;;;;;;;5072081;28;20275;-52
2021/04/25 18:09:29;;;;;;;0.60;0.60;;;;;;;;;;5081371;28;20204;-52
2021/04/25 18:11:59;;;;;;;1.10;0.70;;;;;;;;;;5081670;28;20276;-52
2021/04/25 18:14:26;;;;;;;1.50;0.80;;;;;;;;;;5081452;28;20832;-52
2021/04/25 18:16:54;;;;;;;3.67;1.00;;;;;;;;;;5078524;28;20230;-51
2021/04/25 18:19:21;;;;;;;3.43;0.90;;;;;;;;;;5081806;28;20674;-53
2021/04/25 18:21:46;;;;;;;3.27;1.00;;;;;;;;;;5079918;28;20192;-52
2021/04/25 18:24:14;;;;;;;2.57;0.80;;;;;;;;;;5078648;28;20184;-52
2021/04/25 18:26:41;;;;;;;2.53;1.37;;;;;;;;;;5079391;28;20204;-53
2021/04/25 18:29:09;;;;;;;0.93;0.77;;;;;;;;;;5076912;28;20215;-52
2021/04/25 18:31:36;;;;;;;0.93;0.60;;;;;;;;;;5073319;28;20660;-51
2021/04/25 18:34:03;;;;;;;0.87;0.80;;;;;;;;;;5083358;28;20191;-51
2021/04/25 18:36:29;;;;;;;1.10;0.70;;;;;;;;;;5079633;28;20248;-52
2021/04/25 18:38:55;;;;;;;1.53;0.60;;;;;;;;;;5072323;28;20185;-52
2021/04/25 18:41:25;;;;;;;1.60;0.70;;;;;;;;;;5083477;28;20184;-53
2021/04/25 18:43:51;;;;;;;1.23;0.80;;;;;;;;;;5080704;28;20771;-53
2021/04/25 18:46:16;;;;;;;3.53;0.83;;;;;;;;;;5081705;28;20240;-53
2021/04/25 18:48:50;;;;;;;1.23;0.77;;;;;;;;;;5080580;28;20177;-51
2021/04/25 18:51:18;;;;;;;0.93;0.80;;;;;;;;;;5080354;28;20259;-53
2021/04/25 18:53:46;;;;;;;1.33;0.83;;;;;;;;;;5076379;28;20196;-51
2021/04/25 18:56:11;;;;;;;2.00;0.83;;;;;;;;;;5073892;28;20286;-53
2021/04/25 18:58:37;;;;;;;0.90;0.70;;;;;;;;;;5078763;28;20275;-51
2021/04/25 19:01:07;;;;;;;0.93;0.83;;;;;;;;;;5074532;28;20272;-52
2021/04/25 19:03:32;;;;;;;2.10;0.90;;;;;;;;;;5075964;28;20264;-53
2021/04/25 19:06:00;;;;;;;0.93;0.70;;;;;;;;;;5077770;28;20267;-53
2021/04/25 19:08:30;;;;;;;1.33;0.80;;;;;;;;;;5063906;28;20181;-52
2021/04/25 19:10:58;;;;;;;1.13;0.70;;;;;;;;;;5052839;28;20320;-52
2021/04/25 19:13:24;;;;;;;1.43;0.90;;;;;;;;;;5068820;28;20741;-51
2021/04/25 19:15:50;;;;;;;1.10;0.70;;;;;;;;;;5065037;28;20288;-54
2021/04/25 19:18:16;;;;;;;1.63;0.90;;;;;;;;;;5067416;28;20587;-53
2021/04/25 19:20:41;;;;;;;1.23;0.70;;;;;;;;;;5070324;28;20165;-52
2021/04/25 19:23:11;;;;;;;2.10;0.90;;;;;;;;;;5064604;28;20239;-52
2021/04/25 19:25:41;;;;;;;3.87;1.43;;;;;;;;;;5061805;28;20188;-53
2021/04/25 19:28:07;;;;;;;3.37;0.80;;;;;;;;;;5063089;28;20212;-53
2021/04/25 19:30:35;;;;;;;1.47;0.87;;;;;;;;;;5056253;28;20681;-52
2021/04/25 19:33:02;;;;;;;4.77;1.00;;;;;;;;;;5059252;28;20660;-52
2021/04/25 19:35:28;;;;;;;1.17;0.73;;;;;;;;;;5056269;28;20282;-53
2021/04/25 19:37:53;;;;;;;2.87;1.00;;;;;;;;;;5066119;28;20259;-51
2021/04/25 19:40:19;;;;;;;3.03;1.17;;;;;;;;;;5057178;28;20166;-52
2021/04/25 19:42:44;;;;;;;2.40;0.90;;;;;;;;;;5060631;28;20193;-53
2021/04/25 19:45:11;;;;;;;4.50;1.03;;;;;;;;;;5058990;28;20185;-53
2021/04/25 19:47:40;;;;;;;2.23;0.80;;;;;;;;;;5061937;28;20302;-54
2021/04/25 19:50:06;;;;;;;2.30;0.83;;;;;;;;;;5059836;28;20189;-54
2021/04/25 19:52:34;;;;;;;3.37;0.97;;;;;;;;;;5067441;28;20595;-53
2021/04/25 19:54:59;;;;;;;1.77;0.90;;;;;;;;;;5063427;28;20229;-53
2021/04/25 19:57:27;;;;;;;4.90;1.10;;;;;;;;;;5059079;28;20229;-53
2021/04/25 19:59:58;;;;;;;2.30;0.90;;;;;;;;;;5055795;28;20786;-53
2021/04/25 20:02:28;;;;;;;3.63;1.00;;;;;;;;;;5063104;28;20551;-52
2021/04/25 20:04:58;;;;;;;1.97;1.03;;;;;;;;;;5056747;28;20196;-53
2021/04/25 20:07:23;;;;;;;2.93;0.73;;;;;;;;;;5058935;28;20204;-53
2021/04/25 20:09:49;;;;;;;2.37;1.00;;;;;;;;;;5062324;28;20174;-52
2021/04/25 20:12:14;;;;;;;2.37;0.80;;;;;;;;;;5069700;28;20231;-54
2021/04/25 20:14:44;;;;;;;2.80;0.90;;;;;;;;;;5060470;28;20181;-53
2021/04/25 20:17:12;;;;;;;2.27;0.80;;;;;;;;;;5067114;28;20215;-49
2021/04/25 20:19:42;;;;;;;2.73;1.00;;;;;;;;;;5055657;28;20228;-54
2021/04/25 20:22:07;;;;;;;1.37;0.80;;;;;;;;;;5063516;28;20261;-51
2021/04/25 20:24:37;;;;;;;1.40;1.00;;;;;;;;;;5059434;28;20261;-52
2021/04/25 20:27:03;;;;;;;1.53;1.07;;;;;;;;;;5059782;28;20300;-52
2021/04/25 20:29:28;;;;;;;2.20;0.90;;;;;;;;;;5067766;28;20190;-51
2021/04/25 20:31:53;;;;;;;0.70;0.70;;;;;;;;;;5063025;28;20197;-54
2021/04/25 20:34:21;;;;;;;1.67;0.90;;;;;;;;;;5058147;28;20190;-52
2021/04/25 20:36:46;;;;;;;1.37;0.80;;;;;;;;;;5065282;28;20287;-53
2021/04/25 20:39:14;;;;;;;1.57;0.90;;;;;;;;;;5058763;28;20657;-53
2021/04/25 20:41:41;;;;;;;2.10;0.80;;;;;;;;;;5053979;28;20171;-54
2021/04/25 20:44:06;;;;;;;1.13;0.80;;;;;;;;;;5064295;28;20726;-50
2021/04/25 20:46:31;;;;;;;0.67;0.67;;;;;;;;;;5051969;28;20209;-50
2021/04/25 20:48:57;;;;;;;0.80;0.80;;;;;;;;;;5056965;28;20216;-54
2021/04/25 20:51:22;;;;;;;1.13;0.70;;;;;;;;;;5066587;28;20276;-52
2021/04/25 20:53:47;;;;;;;1.53;0.80;;;;;;;;;;5062899;28;20177;-53
2021/04/25 20:56:14;;;;;;;2.57;0.90;;;;;;;;;;5060749;28;20208;-53
2021/04/25 20:58:42;;;;;;;2.77;0.90;;;;;;;;;;5058173;28;20196;-50
2021/04/25 21:01:07;;;;;;;0.70;0.60;;;;;;;;;;5065083;28;20276;-53
2021/04/25 21:03:34;;;;;;;4.03;0.83;;;;;;;;;;5060450;28;20654;-53
2021/04/25 21:06:02;;;;;;;1.63;0.70;;;;;;;;;;5058583;28;20193;-52
2021/04/25 21:08:27;;;;;;;0.77;0.60;;;;;;;;;;5063977;28;20185;-50
2021/04/25 21:10:57;;;;;;;1.53;0.60;;;;;;;;;;5063872;28;20191;-53
2021/04/25 21:13:24;;;;;;;1.03;0.60;;;;;;;;;;5067514;28;20185;-52
2021/04/25 21:15:49;;;;;;;1.20;0.67;;;;;;;;;;5055903;28;20293;-52
2021/04/25 21:18:16;;;;;;;0.60;0.60;;;;;;;;;;5069178;22;20332;-54
2021/04/25 21:20:44;;;;;;;1.93;0.60;;;;;;;;;;5069048;28;20178;-52
2021/04/25 21:23:09;;;;;;;1.20;0.60;;;;;;;;;;5063195;28;20176;-52
2021/04/25 21:25:34;;;;;;;0.60;0.60;;;;;;;;;;5059733;28;20185;-53
2021/04/25 21:28:00;;;;;;;0.70;0.60;;;;;;;;;;5067549;28;20203;-51
2021/04/25 21:30:27;;;;;;;1.70;0.40;;;;;;;;;;5083963;28;20818;-52
2021/04/25 21:32:52;;;;;;;1.40;0.63;;;;;;;;;;5086904;28;20633;-52
2021/04/25 21:35:20;;;;;;;0.67;0.60;;;;;;;;;;5084098;28;20254;-52
2021/04/25 21:37:48;;;;;;;1.30;0.63;;;;;;;;;;5081000;28;20200;-53
2021/04/25 21:40:17;;;;;;;0.77;0.60;;;;;;;;;;5082322;28;20722;-52
2021/04/25 21:42:45;;;;;;;2.10;0.50;;;;;;;;;;5076267;28;20180;-54
2021/04/25 21:45:13;;;;;;;3.30;0.60;;;;;;;;;;5081247;28;20206;-51
2021/04/25 21:47:54;;;;;;;1.13;0.57;;;;;;;;;;5078244;28;20552;-54
2021/04/25 21:50:19;;;;;;;1.80;0.90;;;;;;;;;;5066159;28;20640;-51
2021/04/25 21:52:46;;;;;;;1.10;0.73;;;;;;;;;;5083464;28;20192;-54
2021/04/25 21:55:12;;;;;;;0.70;0.60;;;;;;;;;;5081343;28;20679;-54
2021/04/25 21:57:41;;;;;;;1.03;0.60;;;;;;;;;;5081901;28;20209;-52
2021/04/25 22:00:12;;;;;;;1.10;0.70;;;;;;;;;;5080904;28;20200;-53
2021/04/25 22:02:37;;;;;;;1.50;0.70;;;;;;;;;;5068741;28;20172;-53
2021/04/25 22:05:02;;;;;;;3.67;0.60;;;;;;;;;;5083540;28;20520;-53
2021/04/25 22:07:30;;;;;;;0.47;0.47;;;;;;;;;;5083106;28;20191;-52
2021/04/25 22:09:55;;;;;;;0.73;0.50;;;;;;;;;;5081736;28;20588;-53
2021/04/25 22:12:23;;;;;;;1.03;0.73;;;;;;;;;;5085300;28;20169;-51
2021/04/25 22:14:50;;;;;;;1.17;0.80;;;;;;;;;;5078292;28;20184;-53
2021/04/25 22:17:17;;;;;;;1.20;0.60;;;;;;;;;;5082281;28;20253;-52
2021/04/25 22:19:45;;;;;;;1.10;0.70;;;;;;;;;;5074947;28;20270;-54
2021/04/25 22:22:10;;;;;;;0.70;0.63;;;;;;;;;;5084552;28;20773;-51
2021/04/25 22:24:37;;;;;;;0.77;0.53;;;;;;;;;;5085617;28;20185;-51
2021/04/25 22:27:07;;;;;;;1.73;0.60;;;;;;;;;;5080871;28;20181;-54
2021/04/25 22:29:33;;;;;;;1.77;0.60;;;;;;;;;;5078091;28;20258;-52
2021/04/25 22:32:00;;;;;;;0.80;0.70;;;;;;;;;;5066395;28;20197;-53
2021/04/25 22:34:25;;;;;;;2.00;1.00;;;;;;;;;;5081353;28;20268;-51
2021/04/25 22:36:50;;;;;;;2.97;1.70;;;;;;;;;;5079057;28;20300;-51
2021/04/25 22:39:18;;;;;;;2.83;1.60;;;;;;;;;;5077254;28;20208;-52
2021/04/25 22:41:43;;;;;;;3.53;1.33;;;;;;;;;;5064854;28;20178;-52
2021/04/25 22:44:13;;;;;;;1.93;1.20;;;;;;;;;;5082219;28;20293;-50
2021/04/25 22:46:38;;;;;;;1.57;0.97;;;;;;;;;;5079156;28;20204;-52
2021/04/25 22:49:03;;;;;;;2.10;1.40;;;;;;;;;;5071928;28;20236;-54
2021/04/25 22:51:31;;;;;;;2.20;0.90;;;;;;;;;;5086598;28;20529;-52
2021/04/25 22:53:58;;;;;;;2.80;0.80;;;;;;;;;;5084347;28;20189;-53
2021/04/25 22:56:25;;;;;;;1.83;0.80;;;;;;;;;;5090211;28;20210;-55
2021/04/25 22:58:51;;;;;;;1.00;0.73;;;;;;;;;;5070960;28;20196;-52
2021/04/25 23:01:18;;;;;;;1.67;0.97;;;;;;;;;;5088262;28;20930;-53
2021/04/25 23:03:45;;;;;;;2.10;1.00;;;;;;;;;;5086808;28;20215;-52
2021/04/25 23:06:11;;;;;;;2.00;1.00;;;;;;;;;;5080639;28;20260;-54
2021/04/25 23:08:41;;;;;;;8.00;1.20;;;;;;;;;;5089802;28;20279;-53
2021/04/25 23:11:06;;;;;;;0.87;0.80;;;;;;;;;;5082461;28;20235;-51
2021/04/25 23:13:31;;;;;;;0.97;0.70;;;;;;;;;;5086459;28;20682;-51
2021/04/25 23:15:59;;;;;;;1.30;0.77;;;;;;;;;;5076205;28;20212;-55
2021/04/25 23:18:24;;;;;;;2.30;0.90;;;;;;;;;;5075892;28;20239;-52
2021/04/25 23:20:49;;;;;;;2.30;0.67;;;;;;;;;;5084248;28;20220;-51
2021/04/25 23:23:17;;;;;;;0.83;0.70;;;;;;;;;;5083892;28;20212;-51
2021/04/25 23:25:42;;;;;;;0.90;0.80;;;;;;;;;;5084079;28;20184;-53
2021/04/25 23:28:10;;;;;;;0.90;0.60;;;;;;;;;;5082800;28;20260;-50
2021/04/25 23:30:37;;;;;;;1.40;0.80;;;;;;;;;;5085485;28;20253;-51
2021/04/25 23:33:07;;;;;;;0.60;0.50;;;;;;;;;;5086405;28;20183;-52
2021/04/25 23:35:34;;;;;;;1.27;0.87;;;;;;;;;;5084209;28;20207;-51
2021/04/25 23:38:02;;;;;;;4.83;1.00;;;;;;;;;;5086932;28;20176;-52
2021/04/25 23:40:32;;;;;;;0.73;0.70;;;;;;;;;;5080429;28;20181;-50
2021/04/25 23:42:59;;;;;;;1.20;0.87;;;;;;;;;;5085104;28;20199;-53
2021/04/25 23:45:24;;;;;;;1.33;0.90;;;;;;;;;;5080318;28;20224;-52
2021/04/25 23:47:50;;;;;;;1.57;0.80;;;;;;;;;;5088456;28;20216;-52
2021/04/25 23:50:20;;;;;;;1.67;0.90;;;;;;;;;;5084225;28;20205;-53
2021/04/25 23:52:47;;;;;;;1.80;0.97;;;;;;;;;;5085395;28;20235;-53
2021/04/25 23:55:15;;;;;;;1.30;0.83;;;;;;;;;;5080162;28;20283;-52
2021/04/25 23:57:43;;;;;;;1.47;1.00;;;;;;;;;;5085413;28;20184;-51
